Bockoe — 5BRN4 — position and weather

sailwx.info

Track history (hours):
 
Tides and Currents Weather Stations Pressure Air Temp Water Temp Dewpoint Dewpoint Depression Visibility Wind Speed Wind Dir Waves Ship Positions

Bockoe

Last reported at 2017-Sep-14 07:27 UTC. Time now 2017-Sep-23 00:29 UTC.
Position N 53°34' E 014°36'.
Warning: this ship's position is 8 days out of date.

Length 107 m; draft 5.6 m.

Type: Ship. MMSI: 212389000.

Date/timePositionNaut miles runAvg speedWind from/ knotsBaromVisibWave heightAir tempDewpointWater temp
2017-Sep-14 07:27N 53°34' E 014°36'3 6.5
2017-Sep-14 06:56N 53°37' E 014°35'4 9.4
2017-Sep-14 06:30N 53°40' E 014°31'510.0
2017-Sep-14 06:00N 53°44' E 014°26'99 6.0
2017-Sep-13 13:29N 55°10' E 013°01'4 5.6
2017-Sep-13 12:49N 55°12' E 012°56'2 6.1
2017-Sep-13 12:30N 55°13' E 012°54'3 6.7
2017-Sep-13 11:59N 55°15' E 012°49'4 7.7
2017-Sep-13 11:30N 55°17' E 012°43'3 6.4
2017-Sep-13 11:00N 55°18' E 012°38'3 5.5
2017-Sep-13 10:30N 55°21' E 012°39'3 5.7
2017-Sep-13 10:00N 55°24' E 012°39'3 5.8
2017-Sep-13 09:30N 55°27' E 012°40'3 5.6
2017-Sep-13 09:00N 55°29' E 012°40'3 5.7
2017-Sep-13 08:30N 55°32' E 012°41'4 8.8
2017-Sep-13 08:00N 55°37' E 012°42'5 9.9
2017-Sep-13 07:30N 55°41' E 012°41'4 8.3
2017-Sep-13 07:00N 55°46' E 012°40'4 7.2
2017-Sep-13 06:30N 55°49' E 012°40'4 7.1
2017-Sep-13 06:00N 55°53' E 012°39'4 7.0
2017-Sep-13 05:30N 55°56' E 012°39'4 7.1
2017-Sep-13 05:00N 55°60' E 012°41'4 7.9
2017-Sep-13 04:31N 56°03' E 012°38'4 8.8
2017-Sep-13 04:00N 56°06' E 012°33'4 8.3
2017-Sep-13 03:30N 56°09' E 012°27'4 7.7
2017-Sep-13 03:00N 56°11' E 012°21'63 7.0
2017-Sep-12 17:59N 57°09' E 011°36'4 7.4
2017-Sep-12 17:29N 57°12' E 011°34'3 7.2
2017-Sep-12 17:01N 57°16' E 011°32'4 7.1
2017-Sep-12 16:30N 57°19' E 011°30'3 6.8
2017-Sep-12 16:00N 57°22' E 011°28'3 6.8
2017-Sep-12 15:30N 57°25' E 011°26'3 6.5
2017-Sep-12 15:00N 57°28' E 011°23'3 6.8
2017-Sep-12 14:30N 57°31' E 011°19'3 6.6
2017-Sep-12 14:00N 57°33' E 011°14'3 6.6
2017-Sep-12 13:30N 57°35' E 011°09'3 6.3
2017-Sep-12 13:00N 57°37' E 011°05'3 5.8
2017-Sep-12 12:29N 57°39' E 011°01'3 6.0
2017-Sep-12 12:00N 57°41' E 010°57'3 6.6
2017-Sep-12 11:30N 57°43' E 010°52'4 7.0
2017-Sep-12 10:59N 57°46' E 010°47'510.3
2017-Sep-12 10:30N 57°47' E 010°38'7910.4
2017-Sep-12 02:51N 57°44' E 008°09'3 8.2
2017-Sep-12 02:30N 57°45' E 008°04'4 8.2
2017-Sep-12 02:01N 57°46' E 007°57'4 8.0
2017-Sep-12 01:30N 57°47' E 007°49'4 8.0
2017-Sep-12 01:00N 57°47' E 007°42'4 7.9
2017-Sep-12 00:30N 57°48' E 007°35'4 7.9
2017-Sep-12 00:00N 57°49' E 007°27'4 7.9
2017-Sep-11 23:31N 57°50' E 007°20'4 7.6
2017-Sep-11 23:00N 57°50' E 007°13'4 7.5
2017-Sep-11 22:30N 57°51' E 007°06'4 7.5
2017-Sep-11 22:01N 57°51' E 006°59'4 8.0
2017-Sep-11 21:30N 57°52' E 006°52'4 8.4
2017-Sep-11 21:00N 57°53' E 006°44'4 8.3
2017-Sep-11 20:30N 57°54' E 006°36'4 8.3
2017-Sep-11 20:00N 57°55' E 006°29'4 7.9
2017-Sep-11 19:30N 57°56' E 006°22'4 7.6
2017-Sep-11 19:00N 57°57' E 006°15'5 7.5
2017-Sep-11 18:22N 57°58' E 006°06'3 6.8
2017-Sep-11 17:58N 58°00' E 006°03'2 4.7
2017-Sep-11 17:30N 58°02' E 006°04'3 5.6
2017-Sep-11 17:01N 58°05' E 006°07'3 5.3
2017-Sep-11 16:30N 58°07' E 006°09'3 5.4
2017-Sep-11 16:00N 58°10' E 006°10'3 6.4
2017-Sep-11 15:30N 58°13' E 006°12'3 6.5
2017-Sep-11 15:00N 58°16' E 006°13'4 7.2
2017-Sep-11 14:30N 58°19' E 006°18'2 0.9
2017-Sep-11 12:32N 58°19' E 006°21'0 0.0
2017-Sep-11 12:20N 58°19' E 006°21'0 0.0
2017-Sep-11 11:23N 58°19' E 006°21'0 0.0
2017-Sep-11 10:47N 58°19' E 006°21'0 0.0
2017-Sep-11 10:29N 58°19' E 006°21'0 0.0
2017-Sep-11 09:53N 58°19' E 006°21'0 0.0
2017-Sep-11 07:17N 58°19' E 006°21'0 0.0
2017-Sep-11 06:58N 58°19' E 006°21'0 0.0
2017-Sep-10 15:49N 58°19' E 006°21'0 0.9
2017-Sep-10 15:24N 58°19' E 006°21'3 7.5
2017-Sep-10 15:00N 58°19' E 006°15'7 6.8
2017-Sep-10 14:00N 58°12' E 006°12'5 9.1
2017-Sep-10 13:30N 58°08' E 006°10'5 9.5
2017-Sep-10 13:00N 58°03' E 006°07'5 9.2
2017-Sep-10 12:30N 57°60' E 006°01'39410.0
2017-Sep-08 21:08N 51°48' E 002°12'3 9.1
2017-Sep-08 20:51N 51°47' E 002°09'3 9.4
2017-Sep-08 20:30N 51°44' E 002°04'5 9.5
2017-Sep-08 19:56N 51°41' E 001°57'4 9.8
2017-Sep-08 19:30N 51°39' E 001°52'510.3
2017-Sep-08 19:01N 51°36' E 001°45'510.6
2017-Sep-08 18:30N 51°32' E 001°39'510.6
2017-Sep-08 18:01N 51°29' E 001°32'510.4
2017-Sep-08 17:30N 51°28' E 001°24'713.7
2017-Sep-08 17:00N 51°29' E 001°13'713.5
2017-Sep-08 16:30N 51°29' E 001°02'4 0.1
2017-Sep-07 09:57N 51°29' E 000°55'612.4
2017-Sep-07 09:30N 51°30' E 001°04'612.4
2017-Sep-07 09:00N 51°29' E 001°14'612.0
2017-Sep-07 08:30N 51°28' E 001°24'5 9.4
2017-Sep-07 08:00N 51°25' E 001°29'3 5.3
2017-Sep-07 07:31N 51°24' E 001°33'3 5.9
2017-Sep-07 07:00N 51°23' E 001°37'3 5.9
2017-Sep-07 06:31N 51°23' E 001°42'3 5.4
2017-Sep-07 06:00N 51°25' E 001°46'3 5.3
2017-Sep-07 05:30N 51°26' E 001°49'3 5.3
2017-Sep-07 05:01N 51°27' E 001°53'3 6.6
2017-Sep-07 04:31N 51°29' E 001°58'4 8.0
2017-Sep-07 04:00N 51°32' E 002°02'4 7.9
2017-Sep-07 03:31N 51°35' E 002°07'5 7.6
2017-Sep-07 02:48N 51°39' E 002°13'146 8.8
2017-Sep-06 10:15N 53°31' E 004°47'2 9.7
2017-Sep-06 10:01N 53°32' E 004°51'5 9.5
2017-Sep-06 09:30N 53°33' E 004°58'99 9.6
2017-Sep-05 23:12N 54°01' E 007°39'5 9.5
2017-Sep-05 22:41N 54°02' E 007°47'2 9.6
2017-Sep-05 22:30N 54°02' E 007°50'5 9.4
2017-Sep-05 22:00N 54°01' E 007°58'5 9.3
2017-Sep-05 21:30N 54°01' E 008°06'5 9.3
2017-Sep-05 21:00N 54°00' E 008°14'5 9.0
2017-Sep-05 20:28N 53°60' E 008°22'4 8.7
2017-Sep-05 19:59N 53°59' E 008°29'5 9.4
2017-Sep-05 19:30N 53°58' E 008°36'611.8
2017-Sep-05 19:00N 53°53' E 008°43'612.7
2017-Sep-05 18:30N 53°51' E 008°52'713.5
2017-Sep-05 18:00N 53°52' E 009°04'3 6.8
2017-Sep-05 17:30N 53°54' E 009°09'0 0.0
2017-Sep-05 17:00N 53°54' E 009°09'0 1.0
2017-Sep-05 16:30N 53°54' E 009°09'4 7.4
2017-Sep-05 16:01N 53°57' E 009°14'4 8.6
2017-Sep-05 15:30N 54°00' E 009°18'36 4.4
2017-Sep-05 07:20N 54°22' E 010°08'1 1.3
2017-Sep-05 06:57N 54°22' E 010°08'0 0.1
2017-Sep-05 06:28N 54°22' E 010°09'4 6.2
2017-Sep-05 05:51N 54°25' E 010°12'410.6
2017-Sep-05 05:28N 54°29' E 010°16'1210.0
2017-Sep-05 04:14N 54°34' E 010°34'210.4
2017-Sep-05 04:00N 54°35' E 010°38'510.4
2017-Sep-05 03:30N 54°35' E 010°47'510.5
2017-Sep-05 03:01N 54°36' E 010°56'510.6
2017-Sep-05 02:30N 54°36' E 011°06'510.6
2017-Sep-05 02:00N 54°35' E 011°14'510.9
2017-Sep-05 01:30N 54°33' E 011°23'510.7
2017-Sep-05 01:00N 54°31' E 011°31'510.6
2017-Sep-05 00:30N 54°29' E 011°40'510.5
2017-Sep-05 00:01N 54°27' E 011°48'710.5
2017-Sep-04 23:19N 54°26' E 012°01'310.5
2017-Sep-04 23:00N 54°27' E 012°06'5 9.0
2017-Sep-04 22:31N 54°30' E 012°11'510.7
2017-Sep-04 22:00N 54°35' E 012°12'510.2
2017-Sep-04 21:30N 54°38' E 012°20'5510.1
2017-Sep-04 16:04N 55°01' E 013°47'1 9.7
2017-Sep-04 15:59N 55°01' E 013°48'5 9.9
2017-Sep-04 15:30N 55°03' E 013°55'510.0
2017-Sep-04 15:00N 55°05' E 014°04'510.0
2017-Sep-04 14:30N 55°08' E 014°09'510.5
2017-Sep-04 14:00N 55°12' E 014°15'510.7
2017-Sep-04 13:30N 55°17' E 014°21'510.7
2017-Sep-04 13:00N 55°21' E 014°27'510.8
2017-Sep-04 12:30N 55°25' E 014°33'5 9.8
2017-Sep-04 12:00N 55°27' E 014°41'510.1
2017-Sep-04 11:30N 55°27' E 014°50'510.2
2017-Sep-04 11:00N 55°28' E 014°59'510.3
2017-Sep-04 10:30N 55°28' E 015°07'510.3
2017-Sep-04 10:00N 55°29' E 015°17'510.1
2017-Sep-04 09:30N 55°29' E 015°25'12 9.9
2017-Sep-04 08:17N 55°30' E 015°47'  
Track history (hours):
 
Tides and Currents Weather Stations Pressure Air Temp Water Temp Dewpoint Dewpoint Depression Visibility Wind Speed Wind Dir Waves Ship Positions

Bockoe

Last reported at 2017-Sep-14 07:27 UTC. Time now 2017-Sep-23 00:29 UTC.
Position N 53°34' E 014°36'.
Warning: this ship's position is 8 days out of date.

Length 107 m; draft 5.6 m.

Type: Ship. MMSI: 212389000.

Date/timePositionNaut miles runAvg speedWind from/ knotsBaromVisibWave heightAir tempDewpointWater temp
2017-Sep-14 07:27N 53°34' E 014°36'3 6.5
2017-Sep-14 06:56N 53°37' E 014°35'4 9.4
2017-Sep-14 06:30N 53°40' E 014°31'510.0
2017-Sep-14 06:00N 53°44' E 014°26'99 6.0
2017-Sep-13 13:29N 55°10' E 013°01'4 5.6
2017-Sep-13 12:49N 55°12' E 012°56'2 6.1
2017-Sep-13 12:30N 55°13' E 012°54'3 6.7
2017-Sep-13 11:59N 55°15' E 012°49'4 7.7
2017-Sep-13 11:30N 55°17' E 012°43'3 6.4
2017-Sep-13 11:00N 55°18' E 012°38'3 5.5
2017-Sep-13 10:30N 55°21' E 012°39'3 5.7
2017-Sep-13 10:00N 55°24' E 012°39'3 5.8
2017-Sep-13 09:30N 55°27' E 012°40'3 5.6
2017-Sep-13 09:00N 55°29' E 012°40'3 5.7
2017-Sep-13 08:30N 55°32' E 012°41'4 8.8
2017-Sep-13 08:00N 55°37' E 012°42'5 9.9
2017-Sep-13 07:30N 55°41' E 012°41'4 8.3
2017-Sep-13 07:00N 55°46' E 012°40'4 7.2
2017-Sep-13 06:30N 55°49' E 012°40'4 7.1
2017-Sep-13 06:00N 55°53' E 012°39'4 7.0
2017-Sep-13 05:30N 55°56' E 012°39'4 7.1
2017-Sep-13 05:00N 55°60' E 012°41'4 7.9
2017-Sep-13 04:31N 56°03' E 012°38'4 8.8
2017-Sep-13 04:00N 56°06' E 012°33'4 8.3
2017-Sep-13 03:30N 56°09' E 012°27'4 7.7
2017-Sep-13 03:00N 56°11' E 012°21'63 7.0
2017-Sep-12 17:59N 57°09' E 011°36'4 7.4
2017-Sep-12 17:29N 57°12' E 011°34'3 7.2
2017-Sep-12 17:01N 57°16' E 011°32'4 7.1
2017-Sep-12 16:30N 57°19' E 011°30'3 6.8
2017-Sep-12 16:00N 57°22' E 011°28'3 6.8
2017-Sep-12 15:30N 57°25' E 011°26'3 6.5
2017-Sep-12 15:00N 57°28' E 011°23'3 6.8
2017-Sep-12 14:30N 57°31' E 011°19'3 6.6
2017-Sep-12 14:00N 57°33' E 011°14'3 6.6
2017-Sep-12 13:30N 57°35' E 011°09'3 6.3
2017-Sep-12 13:00N 57°37' E 011°05'3 5.8
2017-Sep-12 12:29N 57°39' E 011°01'3 6.0
2017-Sep-12 12:00N 57°41' E 010°57'3 6.6
2017-Sep-12 11:30N 57°43' E 010°52'4 7.0
2017-Sep-12 10:59N 57°46' E 010°47'510.3
2017-Sep-12 10:30N 57°47' E 010°38'7910.4
2017-Sep-12 02:51N 57°44' E 008°09'3 8.2
2017-Sep-12 02:30N 57°45' E 008°04'4 8.2
2017-Sep-12 02:01N 57°46' E 007°57'4 8.0
2017-Sep-12 01:30N 57°47' E 007°49'4 8.0
2017-Sep-12 01:00N 57°47' E 007°42'4 7.9
2017-Sep-12 00:30N 57°48' E 007°35'4 7.9
2017-Sep-12 00:00N 57°49' E 007°27'4 7.9
2017-Sep-11 23:31N 57°50' E 007°20'4 7.6
2017-Sep-11 23:00N 57°50' E 007°13'4 7.5
2017-Sep-11 22:30N 57°51' E 007°06'4 7.5
2017-Sep-11 22:01N 57°51' E 006°59'4 8.0
2017-Sep-11 21:30N 57°52' E 006°52'4 8.4
2017-Sep-11 21:00N 57°53' E 006°44'4 8.3
2017-Sep-11 20:30N 57°54' E 006°36'4 8.3
2017-Sep-11 20:00N 57°55' E 006°29'4 7.9
2017-Sep-11 19:30N 57°56' E 006°22'4 7.6
2017-Sep-11 19:00N 57°57' E 006°15'5 7.5
2017-Sep-11 18:22N 57°58' E 006°06'3 6.8
2017-Sep-11 17:58N 58°00' E 006°03'2 4.7
2017-Sep-11 17:30N 58°02' E 006°04'3 5.6
2017-Sep-11 17:01N 58°05' E 006°07'3 5.3
2017-Sep-11 16:30N 58°07' E 006°09'3 5.4
2017-Sep-11 16:00N 58°10' E 006°10'3 6.4
2017-Sep-11 15:30N 58°13' E 006°12'3 6.5
2017-Sep-11 15:00N 58°16' E 006°13'4 7.2
2017-Sep-11 14:30N 58°19' E 006°18'2 0.9
2017-Sep-11 12:32N 58°19' E 006°21'0 0.0
2017-Sep-11 12:20N 58°19' E 006°21'0 0.0
2017-Sep-11 11:23N 58°19' E 006°21'0 0.0
2017-Sep-11 10:47N 58°19' E 006°21'0 0.0
2017-Sep-11 10:29N 58°19' E 006°21'0 0.0
2017-Sep-11 09:53N 58°19' E 006°21'0 0.0
2017-Sep-11 07:17N 58°19' E 006°21'0 0.0
2017-Sep-11 06:58N 58°19' E 006°21'0 0.0
2017-Sep-10 15:49N 58°19' E 006°21'0 0.9
2017-Sep-10 15:24N 58°19' E 006°21'3 7.5
2017-Sep-10 15:00N 58°19' E 006°15'7 6.8
2017-Sep-10 14:00N 58°12' E 006°12'5 9.1
2017-Sep-10 13:30N 58°08' E 006°10'5 9.5
2017-Sep-10 13:00N 58°03' E 006°07'5 9.2
2017-Sep-10 12:30N 57°60' E 006°01'39410.0
2017-Sep-08 21:08N 51°48' E 002°12'3 9.1
2017-Sep-08 20:51N 51°47' E 002°09'3 9.4
2017-Sep-08 20:30N 51°44' E 002°04'5 9.5
2017-Sep-08 19:56N 51°41' E 001°57'4 9.8
2017-Sep-08 19:30N 51°39' E 001°52'510.3
2017-Sep-08 19:01N 51°36' E 001°45'510.6
2017-Sep-08 18:30N 51°32' E 001°39'510.6
2017-Sep-08 18:01N 51°29' E 001°32'510.4
2017-Sep-08 17:30N 51°28' E 001°24'713.7
2017-Sep-08 17:00N 51°29' E 001°13'713.5
2017-Sep-08 16:30N 51°29' E 001°02'4 0.1
2017-Sep-07 09:57N 51°29' E 000°55'612.4
2017-Sep-07 09:30N 51°30' E 001°04'612.4
2017-Sep-07 09:00N 51°29' E 001°14'612.0
2017-Sep-07 08:30N 51°28' E 001°24'5 9.4
2017-Sep-07 08:00N 51°25' E 001°29'3 5.3
2017-Sep-07 07:31N 51°24' E 001°33'3 5.9
2017-Sep-07 07:00N 51°23' E 001°37'3 5.9
2017-Sep-07 06:31N 51°23' E 001°42'3 5.4
2017-Sep-07 06:00N 51°25' E 001°46'3 5.3
2017-Sep-07 05:30N 51°26' E 001°49'3 5.3
2017-Sep-07 05:01N 51°27' E 001°53'3 6.6
2017-Sep-07 04:31N 51°29' E 001°58'4 8.0
2017-Sep-07 04:00N 51°32' E 002°02'4 7.9
2017-Sep-07 03:31N 51°35' E 002°07'5 7.6
2017-Sep-07 02:48N 51°39' E 002°13'146 8.8
2017-Sep-06 10:15N 53°31' E 004°47'2 9.7
2017-Sep-06 10:01N 53°32' E 004°51'5 9.5
2017-Sep-06 09:30N 53°33' E 004°58'99 9.6
2017-Sep-05 23:12N 54°01' E 007°39'5 9.5
2017-Sep-05 22:41N 54°02' E 007°47'2 9.6
2017-Sep-05 22:30N 54°02' E 007°50'5 9.4
2017-Sep-05 22:00N 54°01' E 007°58'5 9.3
2017-Sep-05 21:30N 54°01' E 008°06'5 9.3
2017-Sep-05 21:00N 54°00' E 008°14'5 9.0
2017-Sep-05 20:28N 53°60' E 008°22'4 8.7
2017-Sep-05 19:59N 53°59' E 008°29'5 9.4
2017-Sep-05 19:30N 53°58' E 008°36'611.8
2017-Sep-05 19:00N 53°53' E 008°43'612.7
2017-Sep-05 18:30N 53°51' E 008°52'713.5
2017-Sep-05 18:00N 53°52' E 009°04'3 6.8
2017-Sep-05 17:30N 53°54' E 009°09'0 0.0
2017-Sep-05 17:00N 53°54' E 009°09'0 1.0
2017-Sep-05 16:30N 53°54' E 009°09'4 7.4
2017-Sep-05 16:01N 53°57' E 009°14'4 8.6
2017-Sep-05 15:30N 54°00' E 009°18'36 4.4
2017-Sep-05 07:20N 54°22' E 010°08'1 1.3
2017-Sep-05 06:57N 54°22' E 010°08'0 0.1
2017-Sep-05 06:28N 54°22' E 010°09'4 6.2
2017-Sep-05 05:51N 54°25' E 010°12'410.6
2017-Sep-05 05:28N 54°29' E 010°16'1210.0
2017-Sep-05 04:14N 54°34' E 010°34'210.4
2017-Sep-05 04:00N 54°35' E 010°38'510.4
2017-Sep-05 03:30N 54°35' E 010°47'510.5
2017-Sep-05 03:01N 54°36' E 010°56'510.6
2017-Sep-05 02:30N 54°36' E 011°06'510.6
2017-Sep-05 02:00N 54°35' E 011°14'510.9
2017-Sep-05 01:30N 54°33' E 011°23'510.7
2017-Sep-05 01:00N 54°31' E 011°31'510.6
2017-Sep-05 00:30N 54°29' E 011°40'510.5
2017-Sep-05 00:01N 54°27' E 011°48'710.5
2017-Sep-04 23:19N 54°26' E 012°01'310.5
2017-Sep-04 23:00N 54°27' E 012°06'5 9.0
2017-Sep-04 22:31N 54°30' E 012°11'510.7
2017-Sep-04 22:00N 54°35' E 012°12'510.2
2017-Sep-04 21:30N 54°38' E 012°20'5510.1
2017-Sep-04 16:04N 55°01' E 013°47'1 9.7
2017-Sep-04 15:59N 55°01' E 013°48'5 9.9
2017-Sep-04 15:30N 55°03' E 013°55'510.0
2017-Sep-04 15:00N 55°05' E 014°04'510.0
2017-Sep-04 14:30N 55°08' E 014°09'510.5
2017-Sep-04 14:00N 55°12' E 014°15'510.7
2017-Sep-04 13:30N 55°17' E 014°21'510.7
2017-Sep-04 13:00N 55°21' E 014°27'510.8
2017-Sep-04 12:30N 55°25' E 014°33'5 9.8
2017-Sep-04 12:00N 55°27' E 014°41'510.1
2017-Sep-04 11:30N 55°27' E 014°50'510.2
2017-Sep-04 11:00N 55°28' E 014°59'510.3
2017-Sep-04 10:30N 55°28' E 015°07'510.3
2017-Sep-04 10:00N 55°29' E 015°17'510.1
2017-Sep-04 09:30N 55°29' E 015°25'12 9.9
2017-Sep-04 08:17N 55°30' E 015°47'  

Dump ship's entire track history